Wynot, Nebraska
Current Conditions -  °F | °C
As of 1:55 PM on Thursday 27 Nov 2014 (Local Time) from KYKN Reporting Station
Clear Clear  
Wind Chill:   Ceiling: Unl
Heat Index: 18°   Visibility: 10mi
Dew Point:   Wind: 14mph
Humidity: 63%   Direction: 110°ESE
Pressure: 30.33"   Gusts: NA
Location:  42.74°N, 97.17°W
Report Text: KYKN 271955Z AUTO 11012KT 10SM CLR M08/M14 A3033 RMK AO1
Loading
Personal Weather Stations






























Interactive Weather Map New forecast layout! Learn more

10-Day Weather Forecast

Advertisements
Track Severe Weather on mobile